createdAt,value
2019-05-02T06:11:29.049Z,41.17
2019-05-02T06:14:00.374Z,43.77
2019-05-02T06:16:36.316Z,43.13
2019-05-02T06:19:39.078Z,44.83
2019-05-02T06:22:28.684Z,43.33
2019-05-02T06:28:06.818Z,39.53
2019-05-02T06:30:38.246Z,40.67
2019-05-02T06:33:25.808Z,40.47
2019-05-02T06:36:01.036Z,39.47
2019-05-02T06:46:46.856Z,43.63
2019-05-02T06:52:21.321Z,42.80
2019-05-02T06:57:45.502Z,46.83
2019-05-02T07:00:18.603Z,44.23
2019-05-02T07:03:04.998Z,43.10
2019-05-02T07:09:38.667Z,45.13
2019-05-02T07:12:09.995Z,44.83
2019-05-02T07:14:39.258Z,41.93
2019-05-02T07:17:21.238Z,42.83
2019-05-02T07:19:54.347Z,43.87
2019-05-02T07:22:41.143Z,44.97
2019-05-02T07:25:11.641Z,43.77
2019-05-02T07:27:41.719Z,46.83
2019-05-02T07:30:12.933Z,45.03
2019-05-02T07:32:45.223Z,41.87
2019-05-02T07:35:19.358Z,43.20
2019-05-02T07:37:54.658Z,44.63
2019-05-02T07:40:24.255Z,42.13
2019-05-02T07:42:53.887Z,43.80
2019-05-02T07:45:23.539Z,46.50
2019-05-02T07:50:52.558Z,43.40
2019-05-02T07:53:27.845Z,47.23
2019-05-02T07:56:04.777Z,45.53
2019-05-02T07:58:38.501Z,49.83
2019-05-02T08:01:08.180Z,47.90
2019-05-02T08:03:38.117Z,48.27
2019-05-02T08:06:13.133Z,49.17
2019-05-02T08:08:46.634Z,48.20
2019-05-02T08:11:16.768Z,47.07
2019-05-02T08:13:49.620Z,48.53
2019-05-02T08:16:22.326Z,47.93
2019-05-02T08:21:48.224Z,47.90
2019-05-02T08:24:18.005Z,48.67
2019-05-02T08:42:43.492Z,51.33
2019-05-02T08:57:51.600Z,51.97
2019-05-02T09:00:23.825Z,49.13
2019-05-02T09:03:02.686Z,52.47
2019-05-02T09:15:28.768Z,51.30
2019-05-02T09:18:22.278Z,50.17
2019-05-02T09:23:44.112Z,49.90
2019-05-02T09:26:36.089Z,50.87
2019-05-02T09:32:26.228Z,52.03
2019-05-02T09:37:57.047Z,48.23
2019-05-02T09:40:31.968Z,49.43
2019-05-02T09:43:29.346Z,46.30
2019-05-02T09:46:42.853Z,46.03
2019-05-02T10:01:06.364Z,46.83
2019-05-02T10:03:45.053Z,46.73
2019-05-02T10:06:24.285Z,49.73
2019-05-02T10:09:02.799Z,47.60
2019-05-02T10:11:41.933Z,45.23
2019-05-02T10:14:13.050Z,47.67
2019-05-02T10:16:52.752Z,46.40
2019-05-02T10:19:15.875Z,44.43
2019-05-02T10:21:47.094Z,47.73
2019-05-02T10:24:22.047Z,48.30
2019-05-02T10:27:04.071Z,48.07
2019-05-02T10:30:11.573Z,47.17
2019-05-02T10:32:34.239Z,45.37
2019-05-02T10:35:05.415Z,45.77
2019-05-02T10:37:38.173Z,41.33
2019-05-02T10:40:32.239Z,41.17
2019-05-02T10:43:16.272Z,38.17
2019-05-02T10:46:04.115Z,37.20
2019-05-02T10:48:37.677Z,38.03
2019-05-02T10:51:26.255Z,35.03
2019-05-02T10:53:56.627Z,29.97
2019-05-02T10:56:32.291Z,31.20
2019-05-02T10:59:02.305Z,23.43
2019-05-02T11:01:38.278Z,17.93
2019-05-02T11:04:12.936Z,17.30
2019-05-02T11:06:47.205Z,10.50
2019-05-02T11:09:26.072Z,11.17
2019-05-02T11:11:55.722Z,12.53
2019-05-02T11:15:03.407Z,13.67
2019-05-02T11:17:39.571Z,13.57
2019-05-02T11:20:18.963Z,18.13
2019-05-02T11:22:54.742Z,20.67
2019-05-02T11:25:36.173Z,21.87
2019-05-02T11:28:32.275Z,25.00
2019-05-02T11:31:12.374Z,24.77
2019-05-02T11:33:45.136Z,25.20
2019-05-02T11:36:18.687Z,24.70
2019-05-02T11:38:57.154Z,25.77
2019-05-02T11:41:23.317Z,25.30
2019-05-02T11:43:55.742Z,24.20
2019-05-02T11:46:26.585Z,24.10
2019-05-02T11:49:03.604Z,25.33
2019-05-02T11:51:37.121Z,28.55
2019-05-02T11:54:12.712Z,27.30
2019-05-02T11:56:48.884Z,27.93
2019-05-02T11:59:27.703Z,27.47
2019-05-02T12:02:03.663Z,31.70
2019-05-02T12:04:41.816Z,33.00
2019-05-02T12:07:17.932Z,34.83
2019-05-02T12:09:56.971Z,36.87
2019-05-02T12:12:36.317Z,36.20
2019-05-02T12:15:04.600Z,37.33
2019-05-02T12:17:34.131Z,34.13
2019-05-02T12:20:33.076Z,34.83
2019-05-02T12:23:14.497Z,34.13
2019-05-02T12:25:46.066Z,32.90
2019-05-02T12:28:16.826Z,36.10
2019-05-02T12:30:51.969Z,30.77
2019-05-02T12:33:29.299Z,30.43
2019-05-02T12:36:02.086Z,31.37
2019-05-02T12:38:35.647Z,31.70
2019-05-02T12:41:20.318Z,29.47
2019-05-02T12:43:55.973Z,31.23
2019-05-02T12:46:46.284Z,30.20
2019-05-02T12:49:25.399Z,29.63
2019-05-02T12:52:09.113Z,29.97
2019-05-02T12:54:41.564Z,30.00
2019-05-02T12:57:17.547Z,25.60
2019-05-02T12:59:47.504Z,29.17
2019-05-02T13:02:33.108Z,24.60
2019-05-02T13:05:04.825Z,25.77
2019-05-02T13:08:02.425Z,26.90
2019-05-02T13:11:02.418Z,26.53
2019-05-02T13:13:35.641Z,26.70
2019-05-02T13:16:13.711Z,26.03
2019-05-02T13:18:57.266Z,27.27
2019-05-02T13:21:44.998Z,26.77
2019-05-02T13:27:43.284Z,26.33
2019-05-02T13:30:43.001Z,26.33
2019-05-02T13:37:06.744Z,24.30
2019-05-02T13:40:08.431Z,25.97
2019-05-02T13:45:53.286Z,24.93
2019-05-02T13:52:05.161Z,24.47
2019-05-02T13:54:54.675Z,24.17
2019-05-02T13:57:54.237Z,23.47
2019-05-02T14:12:42.197Z,16.63
2019-05-02T14:35:52.542Z,9.87
2019-05-02T14:45:19.855Z,8.10
2019-05-02T14:51:01.814Z,7.63
2019-05-02T14:53:34.170Z,7.97
2019-05-02T14:56:48.732Z,6.27
2019-05-02T14:59:19.820Z,5.73
2019-05-02T15:02:12.971Z,5.80
2019-05-02T15:07:51.807Z,5.60
2019-05-02T15:10:28.225Z,6.03
2019-05-02T15:16:17.682Z,6.23
2019-05-02T15:19:09.865Z,6.57
2019-05-02T15:21:55.996Z,4.47
2019-05-02T15:24:33.236Z,4.53
2019-05-02T15:28:06.902Z,4.77
2019-05-02T15:30:49.313Z,4.20
2019-05-02T15:36:42.253Z,4.10
2019-05-02T15:42:09.832Z,5.40
2019-05-02T15:48:02.519Z,4.77
2019-05-02T15:51:08.954Z,5.87
2019-05-02T15:54:55.428Z,4.93
2019-05-02T15:59:07.995Z,5.47
2019-05-02T16:01:36.507Z,4.33
2019-05-02T16:05:02.348Z,4.07
2019-05-02T16:07:46.590Z,3.97
2019-05-02T16:11:27.747Z,3.40
2019-05-02T16:24:11.169Z,3.47
2019-05-02T16:26:48.202Z,3.07
2019-05-02T16:34:46.187Z,3.50
2019-05-02T16:37:00.750Z,3.13
2019-05-02T16:40:22.037Z,2.23
2019-05-02T16:43:24.687Z,2.60
2019-05-02T16:46:17.447Z,2.93
2019-05-02T16:48:52.713Z,2.60
2019-05-02T16:51:31.027Z,2.37
2019-05-02T16:54:59.664Z,2.50
2019-05-02T16:58:07.158Z,2.63
2019-05-02T17:00:55.199Z,2.70
2019-05-02T17:03:42.060Z,1.63
2019-05-02T17:06:52.327Z,1.97
2019-05-02T17:09:48.287Z,2.57
2019-05-02T17:12:36.118Z,2.87
2019-05-02T17:15:31.120Z,2.20
2019-05-02T17:18:14.626Z,1.87
2019-05-02T17:20:53.532Z,2.00
2019-05-02T17:23:26.593Z,2.43
2019-05-02T17:26:12.457Z,2.70
2019-05-02T17:28:47.069Z,2.17
2019-05-02T17:31:55.529Z,2.60
2019-05-02T17:34:37.520Z,2.00
2019-05-02T17:37:19.384Z,2.03
2019-05-02T17:39:51.820Z,2.70
2019-05-02T19:37:21.687Z,1.60
2019-05-02T19:47:42.024Z,1.57
2019-05-02T20:31:35.762Z,3.20
2019-05-02T20:38:47.148Z,3.07
2019-05-02T20:41:28.454Z,3.03
2019-05-02T20:44:14.264Z,2.87
2019-05-02T20:58:34.061Z,3.13
2019-05-02T21:01:12.895Z,2.73
2019-05-02T21:04:43.995Z,2.50
2019-05-02T21:08:03.448Z,3.07
2019-05-02T21:10:57.369Z,2.63
2019-05-02T21:13:54.222Z,2.70
2019-05-02T21:17:15.319Z,2.50
2019-05-02T21:19:42.862Z,2.70
2019-05-02T21:22:57.309Z,2.47
2019-05-02T21:31:07.581Z,3.27
2019-05-02T21:34:18.109Z,2.63
2019-05-02T21:37:22.465Z,3.70
2019-05-02T21:40:39.284Z,2.97
2019-05-02T21:43:42.611Z,2.47
2019-05-02T21:49:49.896Z,2.77
2019-05-02T21:52:29.173Z,2.47
2019-05-02T21:55:23.868Z,2.70
2019-05-02T21:57:59.168Z,2.83
2019-05-02T22:03:57.722Z,2.53
2019-05-02T22:06:39.762Z,2.70
2019-05-02T22:09:16.800Z,3.70
2019-05-02T22:14:35.471Z,2.87
2019-05-02T22:17:29.146Z,3.20
2019-05-02T22:20:38.393Z,2.67
2019-05-02T22:23:18.390Z,2.80
2019-05-02T22:25:56.251Z,2.63
2019-05-02T22:28:54.392Z,2.40
2019-05-02T22:34:28.318Z,2.20
2019-05-02T22:37:50.811Z,3.17
2019-05-02T22:40:58.360Z,2.60
2019-05-02T22:47:15.099Z,3.00
2019-05-02T22:49:59.835Z,3.12
2019-05-02T22:52:58.250Z,2.80
2019-05-02T22:55:42.554Z,2.63
2019-05-02T22:58:44.098Z,2.40
2019-05-02T23:01:25.305Z,2.70
2019-05-02T23:04:58.016Z,2.77
2019-05-02T23:07:54.415Z,2.57
2019-05-02T23:10:24.291Z,2.60
2019-05-02T23:13:02.386Z,2.20
2019-05-02T23:15:52.182Z,2.33
2019-05-02T23:21:54.297Z,2.50
2019-05-02T23:28:04.249Z,2.43
2019-05-02T23:31:44.273Z,2.53
2019-05-02T23:35:03.576Z,2.33
2019-05-02T23:37:36.243Z,2.50
2019-05-02T23:40:08.337Z,2.77
2019-05-02T23:43:06.113Z,3.93
2019-05-02T23:45:46.315Z,2.53
2019-05-02T23:48:35.589Z,2.77
2019-05-02T23:51:23.173Z,3.17
2019-05-02T23:55:03.805Z,2.40
2019-05-02T23:57:33.392Z,2.67
